Time;durP1;ratioP1;P1;durP2;ratioP2;P2;SDS_P1;SDS_P2;PMS_P1;PMS_P2;Temp;Humidity;BMP_temperature;BMP_pressure;BME280_temperature;BME280_humidity;BME280_pressure;Samples;Min_cycle;Max_cycle;Signal;HPM_P1;HPM_P2
2023/06/01 00:02:06;;;;;;;10.70;6.43;;;12.60;99.90;;;;;;5067376;28;20045;-75
2023/06/01 00:04:31;;;;;;;14.38;7.53;;;12.70;99.90;;;;;;5064443;28;20043;-76
2023/06/01 00:06:59;;;;;;;13.57;7.32;;;12.70;99.90;;;;;;5058114;28;20029;-77
2023/06/01 00:09:25;;;;;;;12.57;6.65;;;12.70;99.90;;;;;;5060632;28;20550;-76
2023/06/01 00:11:51;;;;;;;13.95;7.70;;;12.70;99.90;;;;;;5060587;28;20040;-75
2023/06/01 00:14:16;;;;;;;15.15;7.30;;;12.50;99.90;;;;;;5065187;28;20110;-76
2023/06/01 00:16:42;;;;;;;13.85;7.35;;;12.50;99.90;;;;;;5067935;28;20033;-76
2023/06/01 00:19:08;;;;;;;15.55;7.88;;;12.40;99.90;;;;;;5058628;28;20040;-75
2023/06/01 00:21:35;;;;;;;15.13;8.00;;;12.30;99.90;;;;;;5057513;28;20033;-76
2023/06/01 00:24:01;;;;;;;15.52;7.70;;;12.30;99.90;;;;;;5048739;28;20059;-75
2023/06/01 00:26:27;;;;;;;14.85;7.90;;;12.30;99.90;;;;;;5047953;28;20025;-77
2023/06/01 00:28:52;;;;;;;19.63;7.70;;;12.30;99.90;;;;;;5048401;28;20098;-76
2023/06/01 00:31:18;;;;;;;12.75;7.35;;;12.40;99.90;;;;;;5058102;28;20060;-76
2023/06/01 00:33:44;;;;;;;16.70;7.95;;;12.40;99.90;;;;;;5068628;28;20047;-77
2023/06/01 00:36:09;;;;;;;18.30;7.93;;;12.40;99.90;;;;;;5067497;28;20052;-79
2023/06/01 00:38:35;;;;;;;13.88;7.50;;;12.40;99.90;;;;;;5066878;28;20064;-75
2023/06/01 00:41:01;;;;;;;12.90;7.07;;;12.40;99.90;;;;;;5068517;28;20064;-76
2023/06/01 00:43:26;;;;;;;13.70;7.80;;;12.30;99.90;;;;;;5067537;28;20595;-77
2023/06/01 00:45:53;;;;;;;15.98;7.97;;;12.20;99.90;;;;;;5059910;28;20028;-76
2023/06/01 00:48:20;;;;;;;17.30;8.50;;;12.10;99.90;;;;;;5047707;28;20033;-76
2023/06/01 00:50:46;;;;;;;14.10;7.60;;;12.10;99.90;;;;;;5059603;28;20090;-76
2023/06/01 00:53:17;;;;;;;13.77;8.02;;;12.10;99.90;;;;;;5066450;28;20427;-79
2023/06/01 00:55:44;;;;;;;18.20;7.82;;;11.90;99.90;;;;;;5054717;28;20112;-76
2023/06/01 00:58:10;;;;;;;14.25;7.88;;;11.90;99.90;;;;;;5051354;28;20377;-76
2023/06/01 01:00:37;;;;;;;13.80;8.30;;;11.80;99.90;;;;;;5065594;28;20430;-76
2023/06/01 01:03:08;;;;;;;16.40;7.78;;;11.70;99.90;;;;;;5069379;28;20088;-76
2023/06/01 01:05:38;;;;;;;16.52;8.80;;;11.60;99.90;;;;;;5071516;28;20035;-76
2023/06/01 01:08:56;;;;;;;19.52;8.48;;;11.50;99.90;;;;;;5066556;28;20166;-77
2023/06/01 01:11:26;;;;;;;15.80;7.82;;;11.50;99.90;;;;;;5027181;28;20040;-76
2023/06/01 01:14:05;;;;;;;15.05;7.95;;;11.50;99.90;;;;;;5064671;28;20496;-77
2023/06/01 01:16:41;;;;;;;16.98;8.02;;;11.50;99.90;;;;;;5065981;28;20041;-76
2023/06/01 01:19:25;;;;;;;18.25;8.23;;;11.50;99.90;;;;;;5065509;28;20122;-76
2023/06/01 01:22:15;;;;;;;17.25;8.25;;;11.50;99.90;;;;;;5057593;28;20055;-76
2023/06/01 01:25:20;;;;;;;15.00;8.07;;;11.50;99.90;;;;;;5058882;28;20536;-76
2023/06/01 01:28:14;;;;;;;14.57;7.82;;;11.50;99.90;;;;;;5069604;28;20283;-75
2023/06/01 01:30:41;;;;;;;15.25;8.35;;;11.50;99.90;;;;;;5022255;28;20045;-76
2023/06/01 01:33:09;;;;;;;16.92;8.77;;;11.50;99.90;;;;;;5051868;28;20116;-77
2023/06/01 01:35:36;;;;;;;13.27;8.23;;;11.50;99.90;;;;;;5050925;28;20032;-76
2023/06/01 01:38:02;;;;;;;14.93;8.23;;;11.40;99.90;;;;;;5051554;28;20076;-75
2023/06/01 01:40:27;;;;;;;18.90;8.75;;;11.40;99.90;;;;;;5064733;28;20548;-78
2023/06/01 01:42:54;;;;;;;16.38;8.40;;;11.40;99.90;;;;;;5051234;28;20036;-76
2023/06/01 01:45:20;;;;;;;23.42;8.65;;;11.50;99.90;;;;;;5069370;28;20431;-77
2023/06/01 01:47:52;;;;;;;16.20;8.27;;;11.40;99.90;;;;;;5067316;28;20032;-76
2023/06/01 01:50:21;;;;;;;18.30;8.15;;;11.30;99.90;;;;;;5049480;28;20037;-78
2023/06/01 01:52:48;;;;;;;15.02;7.78;;;11.20;99.90;;;;;;5051511;28;20033;-76
2023/06/01 01:55:15;;;;;;;16.88;8.48;;;11.10;99.90;;;;;;5051381;28;20043;-79
2023/06/01 01:57:43;;;;;;;17.50;8.05;;;11.00;99.90;;;;;;5056877;28;20487;-76
2023/06/01 02:00:11;;;;;;;16.83;8.32;;;11.00;99.90;;;;;;5063200;28;20040;-77
2023/06/01 02:02:37;;;;;;;16.48;8.43;;;11.00;99.90;;;;;;5065970;28;20071;-76
2023/06/01 02:05:03;;;;;;;13.75;7.95;;;11.00;99.90;;;;;;5069890;28;20467;-78
2023/06/01 02:07:28;;;;;;;15.23;8.30;;;11.00;99.90;;;;;;5069059;28;20757;-76
2023/06/01 02:09:54;;;;;;;17.83;8.20;;;10.90;99.90;;;;;;5056430;28;20040;-76
2023/06/01 02:12:20;;;;;;;17.05;8.23;;;10.90;99.90;;;;;;5056894;28;20041;-79
2023/06/01 02:14:45;;;;;;;13.93;7.90;;;10.90;99.90;;;;;;5057149;28;20033;-76
2023/06/01 02:17:11;;;;;;;15.25;8.32;;;11.00;99.90;;;;;;5062654;28;20039;-76
2023/06/01 02:19:36;;;;;;;15.07;8.25;;;11.00;99.90;;;;;;5060741;28;20082;-77
2023/06/01 02:22:02;;;;;;;14.98;7.50;;;11.00;99.90;;;;;;5060911;28;20037;-76
2023/06/01 02:24:28;;;;;;;15.30;7.97;;;11.00;99.90;;;;;;5065419;28;20063;-77
2023/06/01 02:26:54;;;;;;;18.02;8.77;;;10.90;99.90;;;;;;5068096;28;20455;-76
2023/06/01 02:29:23;;;;;;;20.30;8.30;;;10.90;99.90;;;;;;5054777;28;20675;-78
2023/06/01 02:31:50;;;;;;;17.33;9.25;;;10.90;99.90;;;;;;5052150;28;20040;-76
2023/06/01 02:34:18;;;;;;;18.30;8.65;;;10.90;99.90;;;;;;5050739;28;20112;-77
2023/06/01 02:36:43;;;;;;;14.80;8.07;;;10.90;99.90;;;;;;5056132;28;20047;-76
2023/06/01 02:39:09;;;;;;;15.70;8.73;;;10.80;99.90;;;;;;5068190;28;20037;-77
2023/06/01 02:41:35;;;;;;;15.32;8.75;;;10.70;99.90;;;;;;5070074;28;20033;-76
2023/06/01 02:44:02;;;;;;;16.75;8.35;;;10.60;99.90;;;;;;5069092;28;20358;-76
2023/06/01 02:46:27;;;;;;;20.95;9.32;;;10.60;99.90;;;;;;5067790;28;20028;-77
2023/06/01 02:48:53;;;;;;;16.05;8.85;;;10.60;99.90;;;;;;5069727;28;20046;-76
2023/06/01 02:51:19;;;;;;;21.08;8.95;;;10.60;99.90;;;;;;5070156;28;20024;-78
2023/06/01 02:53:46;;;;;;;15.02;8.82;;;10.50;99.90;;;;;;5067105;28;20032;-77
2023/06/01 02:56:12;;;;;;;15.27;8.20;;;10.40;99.90;;;;;;5064843;28;20021;-77
2023/06/01 02:58:38;;;;;;;14.07;7.97;;;10.30;99.90;;;;;;5049138;28;20865;-75
2023/06/01 03:01:04;;;;;;;14.43;8.15;;;10.30;99.90;;;;;;5056387;28;20781;-75
2023/06/01 03:03:30;;;;;;;15.27;7.85;;;10.20;99.90;;;;;;5051711;28;20419;-76
2023/06/01 03:05:56;;;;;;;12.55;7.85;;;10.20;99.90;;;;;;5056581;28;20528;-76
2023/06/01 03:08:24;;;;;;;15.32;7.88;;;10.20;99.90;;;;;;5061803;28;20036;-78
2023/06/01 03:10:50;;;;;;;16.63;7.82;;;10.20;99.90;;;;;;5063801;28;20532;-72
2023/06/01 03:13:16;;;;;;;17.33;8.18;;;10.20;99.90;;;;;;5056234;28;20111;-76
2023/06/01 03:15:42;;;;;;;15.15;8.00;;;10.20;99.90;;;;;;5059306;28;20095;-76
2023/06/01 03:18:08;;;;;;;13.25;7.30;;;10.10;99.90;;;;;;5068237;28;20028;-77
2023/06/01 03:20:34;;;;;;;14.55;8.80;;;10.10;99.90;;;;;;5068766;28;20041;-76
2023/06/01 03:23:00;;;;;;;17.02;7.68;;;10.10;99.90;;;;;;5066486;28;20601;-77
2023/06/01 03:25:26;;;;;;;15.70;7.32;;;10.10;99.90;;;;;;5062724;28;20017;-77
2023/06/01 03:27:52;;;;;;;15.10;7.72;;;10.10;99.90;;;;;;5067199;28;20484;-77
2023/06/01 03:30:18;;;;;;;15.65;7.88;;;10.10;99.90;;;;;;5053540;28;20048;-77
2023/06/01 03:32:45;;;;;;;16.95;8.25;;;10.10;99.90;;;;;;5048810;28;20031;-76
2023/06/01 03:35:13;;;;;;;14.30;7.78;;;10.30;99.90;;;;;;5064420;28;20078;-77
2023/06/01 03:37:41;;;;;;;16.30;7.85;;;10.30;99.90;;;;;;5066638;28;20095;-76
2023/06/01 03:40:11;;;;;;;18.05;8.40;;;10.30;99.90;;;;;;5067820;28;20110;-77
2023/06/01 03:42:45;;;;;;;17.23;7.90;;;10.20;99.90;;;;;;5067079;28;20072;-77
2023/06/01 03:45:12;;;;;;;15.48;7.90;;;10.10;99.90;;;;;;5069289;28;20021;-77
2023/06/01 03:47:38;;;;;;;12.90;7.57;;;10.00;99.90;;;;;;5065322;28;20373;-77
2023/06/01 03:50:07;;;;;;;15.85;7.22;;;10.00;99.90;;;;;;5063983;28;20722;-77
2023/06/01 03:52:33;;;;;;;11.60;7.38;;;10.00;99.90;;;;;;5066912;28;20498;-76
2023/06/01 03:55:04;;;;;;;14.88;8.18;;;10.00;99.90;;;;;;5065427;28;21130;-76
2023/06/01 03:57:30;;;;;;;13.60;7.60;;;10.00;99.90;;;;;;5056349;28;20064;-73
2023/06/01 03:59:56;;;;;;;15.23;7.65;;;9.90;99.90;;;;;;5043541;28;20389;-71
2023/06/01 04:02:22;;;;;;;16.95;7.95;;;9.90;99.90;;;;;;5049202;28;20055;-71
2023/06/01 04:04:48;;;;;;;14.48;7.97;;;9.90;99.90;;;;;;5048325;28;20450;-73
2023/06/01 04:07:18;;;;;;;13.23;7.53;;;9.90;99.90;;;;;;5049229;28;20087;-74
2023/06/01 04:09:44;;;;;;;15.53;8.13;;;9.90;99.90;;;;;;5048182;28;20033;-76
2023/06/01 04:12:10;;;;;;;16.48;8.50;;;9.90;99.90;;;;;;5052483;28;20283;-73
2023/06/01 04:14:36;;;;;;;17.13;8.35;;;9.90;99.90;;;;;;5058126;28;20039;-71
2023/06/01 04:17:02;;;;;;;13.27;7.72;;;10.00;99.90;;;;;;5048874;28;20024;-72
2023/06/01 04:19:28;;;;;;;14.30;8.75;;;10.10;99.90;;;;;;5050372;28;20044;-72
2023/06/01 04:21:53;;;;;;;14.65;8.38;;;10.20;99.90;;;;;;5048376;28;20083;-73
2023/06/01 04:24:19;;;;;;;14.90;8.13;;;10.30;99.90;;;;;;5044019;28;20952;-75
2023/06/01 04:26:45;;;;;;;19.08;8.00;;;10.40;99.90;;;;;;5070080;28;20100;-72
2023/06/01 04:29:11;;;;;;;13.38;8.05;;;10.60;99.90;;;;;;5064874;28;20363;-73
2023/06/01 04:31:38;;;;;;;13.82;7.22;;;10.70;99.90;;;;;;5048450;28;20042;-77
2023/06/01 04:34:05;;;;;;;11.82;7.20;;;10.80;99.90;;;;;;5052547;28;20116;-74
2023/06/01 04:36:33;;;;;;;14.30;7.40;;;10.90;99.90;;;;;;5067693;28;20029;-74
2023/06/01 04:38:58;;;;;;;12.93;7.15;;;11.10;99.90;;;;;;5068524;28;20032;-76
2023/06/01 04:41:28;;;;;;;17.55;8.25;;;11.20;99.90;;;;;;5068251;28;20503;-83
2023/06/01 04:43:54;;;;;;;11.18;7.05;;;11.40;99.90;;;;;;5065311;28;20028;-74
2023/06/01 04:46:24;;;;;;;13.40;7.45;;;11.50;99.90;;;;;;5048524;28;20121;-76
2023/06/01 04:48:51;;;;;;;14.10;7.32;;;11.70;99.90;;;;;;5048094;28;20033;-75
2023/06/01 04:51:21;;;;;;;14.15;7.50;;;11.80;99.90;;;;;;5048434;28;20452;-75
2023/06/01 04:53:51;;;;;;;15.73;7.63;;;11.90;99.90;;;;;;5047816;28;20021;-79
2023/06/01 04:56:26;;;;;;;17.02;7.80;;;12.00;99.90;;;;;;5051052;28;20480;-75
2023/06/01 04:58:53;;;;;;;18.13;7.85;;;12.00;99.90;;;;;;5056207;28;20042;-75
2023/06/01 05:01:24;;;;;;;14.80;7.85;;;12.00;99.90;;;;;;5067373;28;20039;-76
2023/06/01 05:03:55;;;;;;;15.75;7.70;;;12.10;99.90;;;;;;5067133;28;20048;-76
2023/06/01 05:06:22;;;;;;;14.55;7.82;;;12.20;99.90;;;;;;5066965;28;20115;-71
2023/06/01 05:08:48;;;;;;;15.27;7.65;;;12.40;99.90;;;;;;5061566;28;20372;-72
2023/06/01 05:11:14;;;;;;;13.88;7.65;;;12.40;99.90;;;;;;5046630;28;20033;-75
2023/06/01 05:13:41;;;;;;;21.42;8.52;;;12.40;99.90;;;;;;5045393;28;20032;-74
2023/06/01 05:16:08;;;;;;;29.25;8.07;;;12.40;99.90;;;;;;5048203;28;20025;-75
2023/06/01 05:18:34;;;;;;;12.93;7.40;;;12.70;99.90;;;;;;5047129;28;20549;-75
2023/06/01 05:21:00;;;;;;;13.57;6.60;;;12.90;99.90;;;;;;5050523;28;20086;-73
2023/06/01 05:23:26;;;;;;;14.90;7.30;;;13.20;99.90;;;;;;5062820;28;20490;-72
2023/06/01 05:25:54;;;;;;;12.05;7.25;;;13.40;99.90;;;;;;5061387;28;20029;-72
2023/06/01 05:28:20;;;;;;;14.43;6.43;;;13.60;99.90;;;;;;5065329;28;20036;-73
2023/06/01 05:30:46;;;;;;;16.38;6.80;;;13.80;99.90;;;;;;5067272;28;20036;-72
2023/06/01 05:33:12;;;;;;;13.02;7.97;;;14.00;99.90;;;;;;5065833;28;20361;-76
2023/06/01 05:35:38;;;;;;;14.50;7.80;;;13.90;99.90;;;;;;5062057;28;20033;-73
2023/06/01 05:38:03;;;;;;;14.02;7.28;;;13.70;99.90;;;;;;5059435;28;20028;-68
2023/06/01 05:40:29;;;;;;;11.82;7.63;;;13.60;99.90;;;;;;5058171;28;20033;-75
2023/06/01 05:42:55;;;;;;;16.02;7.65;;;13.70;99.90;;;;;;5053083;28;20034;-70
2023/06/01 05:45:21;;;;;;;19.77;7.07;;;13.70;99.90;;;;;;5061575;28;20445;-71
2023/06/01 05:47:46;;;;;;;15.68;7.47;;;13.90;99.90;;;;;;5067352;28;20495;-70
2023/06/01 05:50:12;;;;;;;12.10;6.70;;;14.20;99.90;;;;;;5059291;28;20466;-73
2023/06/01 05:52:39;;;;;;;10.65;6.07;;;14.50;99.90;;;;;;5065229;28;20473;-69
2023/06/01 05:55:05;;;;;;;12.27;6.10;;;14.70;99.90;;;;;;5070446;28;20122;-74
2023/06/01 05:57:31;;;;;;;15.60;6.55;;;15.00;99.90;;;;;;5069487;28;20392;-79
2023/06/01 05:59:57;;;;;;;9.75;6.22;;;15.30;99.90;;;;;;5053172;28;20037;-75
2023/06/01 06:02:23;;;;;;;13.25;6.40;;;15.60;99.90;;;;;;5050873;28;20819;-76
2023/06/01 06:04:48;;;;;;;12.20;5.78;;;15.80;99.90;;;;;;5050046;28;20033;-74
2023/06/01 06:07:14;;;;;;;18.40;6.57;;;16.10;99.90;;;;;;5061666;28;20056;-76
2023/06/01 06:09:40;;;;;;;10.43;5.47;;;16.30;99.90;;;;;;5069165;28;20500;-75
2023/06/01 06:12:06;;;;;;;12.40;6.10;;;16.40;99.90;;;;;;5071278;28;20036;-72
2023/06/01 06:14:32;;;;;;;10.77;5.90;;;16.60;99.90;;;;;;5069908;28;20098;-79
2023/06/01 06:16:58;;;;;;;10.68;5.47;;;16.70;99.90;;;;;;5069846;28;20468;-76
2023/06/01 06:19:23;;;;;;;10.00;5.30;;;16.90;99.90;;;;;;5069050;28;20036;-67
2023/06/01 06:21:49;;;;;;;13.38;5.97;;;17.10;99.90;;;;;;5066734;28;20161;-77
2023/06/01 06:24:15;;;;;;;12.38;5.05;;;17.20;99.90;;;;;;5070987;28;20074;-73
2023/06/01 06:26:41;;;;;;;9.55;5.03;;;17.30;99.90;;;;;;5058675;28;20021;-75
2023/06/01 06:29:06;;;;;;;9.70;4.95;;;17.50;99.90;;;;;;5051507;28;20466;-73
2023/06/01 06:31:32;;;;;;;10.43;4.82;;;17.70;99.90;;;;;;5052550;28;20111;-78
2023/06/01 06:33:59;;;;;;;10.90;4.80;;;17.80;99.90;;;;;;5050694;28;20413;-70
2023/06/01 06:36:25;;;;;;;13.00;4.63;;;17.90;99.90;;;;;;5059769;28;20089;-72
2023/06/01 06:38:51;;;;;;;11.63;4.93;;;18.10;99.90;;;;;;5069923;28;20590;-71
2023/06/01 06:41:16;;;;;;;8.38;4.40;;;18.30;99.90;;;;;;5070588;28;20037;-70
2023/06/01 06:43:42;;;;;;;9.25;4.47;;;18.40;99.90;;;;;;5065643;28;20147;-73
2023/06/01 06:46:08;;;;;;;10.00;4.00;;;18.50;99.90;;;;;;5050605;28;20035;-74
2023/06/01 06:48:34;;;;;;;7.30;4.45;;;18.60;99.90;;;;;;5051446;28;20028;-74
2023/06/01 06:50:59;;;;;;;10.50;4.53;;;18.70;99.90;;;;;;5049151;28;20443;-72
2023/06/01 06:53:25;;;;;;;14.15;4.18;;;18.70;99.90;;;;;;5049114;28;20021;-71
2023/06/01 06:55:51;;;;;;;19.65;5.60;;;18.80;99.90;;;;;;5049188;28;20786;-71
2023/06/01 06:58:16;;;;;;;9.48;4.63;;;18.80;99.90;;;;;;5051211;28;20384;-70
2023/06/01 07:00:43;;;;;;;11.45;4.50;;;19.00;99.90;;;;;;5051786;28;20544;-75
2023/06/01 07:03:09;;;;;;;9.93;4.47;;;19.20;99.90;;;;;;5050151;28;20049;-78
2023/06/01 07:05:35;;;;;;;9.65;4.70;;;19.40;99.90;;;;;;5053956;28;20031;-80
2023/06/01 07:08:01;;;;;;;10.77;4.68;;;19.60;99.90;;;;;;5060270;28;20443;-74
2023/06/01 07:10:26;;;;;;;7.68;4.53;;;19.80;99.90;;;;;;5069259;28;20028;-74
2023/06/01 07:12:52;;;;;;;12.48;4.80;;;20.00;99.90;;;;;;5065183;28;20726;-76
2023/06/01 07:15:18;;;;;;;12.00;4.95;;;20.00;99.90;;;;;;5058698;28;20024;-72
2023/06/01 07:17:43;;;;;;;7.13;4.30;;;20.20;99.90;;;;;;5068810;28;20488;-73
2023/06/01 07:20:11;;;;;;;10.07;4.70;;;20.30;99.80;;;;;;5068418;28;20602;-73
2023/06/01 07:22:37;;;;;;;8.32;4.53;;;20.40;98.90;;;;;;5068177;28;20029;-79
2023/06/01 07:25:03;;;;;;;10.20;4.93;;;20.50;98.80;;;;;;5068144;28;20097;-71
2023/06/01 07:27:29;;;;;;;9.15;4.72;;;20.50;99.00;;;;;;5065329;28;20441;-72
2023/06/01 07:29:55;;;;;;;14.40;4.38;;;20.60;98.20;;;;;;5048665;28;20057;-77
2023/06/01 07:32:25;;;;;;;11.15;4.80;;;20.70;97.90;;;;;;5049540;28;20361;-74
2023/06/01 07:34:51;;;;;;;15.10;4.72;;;20.80;97.70;;;;;;5050853;28;20124;-74
2023/06/01 07:37:21;;;;;;;9.45;4.50;;;20.90;96.50;;;;;;5051398;28;20469;-75
2023/06/01 07:39:48;;;;;;;9.25;4.35;;;21.10;96.70;;;;;;5047317;28;20037;-79
2023/06/01 07:42:14;;;;;;;6.57;4.03;;;21.30;97.20;;;;;;5053728;28;20469;-78
2023/06/01 07:44:40;;;;;;;10.00;4.32;;;21.50;96.60;;;;;;5049559;28;20035;-72
2023/06/01 07:47:05;;;;;;;19.00;4.60;;;21.70;95.50;;;;;;5049913;28;20108;-73
2023/06/01 07:49:31;;;;;;;9.52;4.30;;;21.70;94.80;;;;;;5049326;28;20029;-71
2023/06/01 07:51:58;;;;;;;7.57;4.57;;;21.60;95.40;;;;;;5048364;28;20087;-74
2023/06/01 07:54:24;;;;;;;11.68;4.63;;;21.70;95.50;;;;;;5050839;28;20144;-74
2023/06/01 07:56:50;;;;;;;8.75;4.75;;;21.80;95.40;;;;;;5052900;28;20111;-72
2023/06/01 07:59:16;;;;;;;12.32;4.40;;;21.80;94.30;;;;;;5069032;28;20086;-75
2023/06/01 08:01:42;;;;;;;9.70;4.80;;;21.90;93.70;;;;;;5063096;28;20029;-75
2023/06/01 08:04:08;;;;;;;14.50;4.85;;;21.80;93.30;;;;;;5069097;28;20037;-76
2023/06/01 08:06:35;;;;;;;15.85;4.60;;;21.90;91.80;;;;;;5067580;28;20255;-76
2023/06/01 08:09:04;;;;;;;11.23;5.13;;;22.00;91.70;;;;;;5068071;28;20044;-76
2023/06/01 08:11:32;;;;;;;12.25;4.95;;;22.20;92.90;;;;;;5065072;28;20520;-75
2023/06/01 08:13:59;;;;;;;14.90;4.97;;;22.40;91.50;;;;;;5048138;28;20605;-77
2023/06/01 08:16:26;;;;;;;11.48;5.60;;;22.60;91.70;;;;;;5047295;28;20116;-74
2023/06/01 08:18:56;;;;;;;11.35;5.28;;;22.80;90.40;;;;;;5052695;28;20033;-71
2023/06/01 08:21:26;;;;;;;13.07;5.00;;;22.90;90.10;;;;;;5052433;28;20090;-72
2023/06/01 08:23:54;;;;;;;11.50;5.00;;;23.00;90.30;;;;;;5066642;28;20063;-74
2023/06/01 08:26:21;;;;;;;8.68;4.97;;;23.30;90.00;;;;;;5065558;28;20020;-75
2023/06/01 08:28:51;;;;;;;8.43;5.03;;;23.30;90.00;;;;;;5067497;28;20037;-75
2023/06/01 08:31:22;;;;;;;12.25;4.93;;;23.30;86.80;;;;;;5065081;28;20048;-78
2023/06/01 08:33:48;;;;;;;;;;;23.40;89.50;;;;;;5068181;28;20489;-77
2023/06/01 08:36:14;;;;;;;14.73;5.38;;;23.50;87.80;;;;;;5057890;28;20579;-77
2023/06/01 08:38:43;;;;;;;11.55;5.05;;;23.70;86.90;;;;;;5048223;28;20028;-77
2023/06/01 08:41:34;;;;;;;12.68;5.68;;;23.80;86.50;;;;;;5050494;28;20045;-76
2023/06/01 08:44:03;;;;;;;12.63;4.95;;;23.80;83.60;;;;;;5049893;28;20021;-76
2023/06/01 08:46:34;;;;;;;12.82;5.25;;;24.10;82.90;;;;;;5068678;28;20037;-73
2023/06/01 08:49:01;;;;;;;13.38;5.93;;;24.20;88.10;;;;;;5053094;28;20095;-73
2023/06/01 08:51:28;;;;;;;8.30;4.97;;;24.30;85.20;;;;;;5049840;28;20029;-75
2023/06/01 08:53:57;;;;;;;19.10;5.80;;;24.30;82.90;;;;;;5047632;28;20111;-77
2023/06/01 08:56:23;;;;;;;16.15;6.15;;;24.40;80.70;;;;;;5048463;28;20025;-73
2023/06/01 08:58:50;;;;;;;11.52;5.68;;;24.20;80.70;;;;;;5049995;28;20028;-75
2023/06/01 09:01:21;;;;;;;9.05;5.95;;;24.20;83.00;;;;;;5058996;28;20053;-74
2023/06/01 09:03:51;;;;;;;10.93;6.40;;;24.30;84.30;;;;;;5047129;28;20462;-72
2023/06/01 09:06:17;;;;;;;;;;;24.50;81.30;;;;;;5047338;28;20032;-76
2023/06/01 09:08:44;;;;;;;14.68;6.30;;;24.60;80.80;;;;;;5047553;28;20429;-79
2023/06/01 09:11:10;;;;;;;18.17;6.55;;;24.80;80.30;;;;;;5052021;28;20052;-72
2023/06/01 09:13:37;;;;;;;12.73;5.85;;;24.90;79.70;;;;;;5065688;28;20511;-74
2023/06/01 09:16:04;;;;;;;15.45;6.38;;;25.10;80.00;;;;;;5051337;28;20025;-75
2023/06/01 09:18:30;;;;;;;11.77;6.15;;;25.30;78.00;;;;;;5048119;28;20039;-73
2023/06/01 09:21:17;;;;;;;15.30;6.43;;;25.40;80.10;;;;;;5048294;28;20033;-74
2023/06/01 09:23:43;;;;;;;11.15;5.70;;;25.60;77.30;;;;;;5053676;28;20037;-81
2023/06/01 09:26:14;;;;;;;13.85;5.78;;;25.50;76.70;;;;;;5057950;28;20071;-71
2023/06/01 09:28:55;;;;;;;;;;;25.80;76.00;;;;;;5058891;28;20036;-71
2023/06/01 09:31:45;;;;;;;12.88;5.82;;;25.70;72.00;;;;;;5071938;28;19940;-70
2023/06/01 09:34:18;;;;;;;11.63;6.18;;;25.50;74.40;;;;;;5071927;28;20104;-73
2023/06/01 09:36:54;;;;;;;13.55;5.65;;;25.70;74.80;;;;;;5068977;28;20036;-75
2023/06/01 09:39:22;;;;;;;10.68;5.85;;;26.00;72.00;;;;;;5051627;28;20106;-77
2023/06/01 09:41:53;;;;;;;11.98;5.53;;;26.20;73.50;;;;;;5059056;28;20527;-72
2023/06/01 09:44:48;;;;;;;10.07;5.90;;;26.20;68.60;;;;;;5069874;28;20021;-71
2023/06/01 09:47:14;;;;;;;12.00;5.97;;;26.20;68.30;;;;;;5067236;28;20699;-73
2023/06/01 09:49:46;;;;;;;13.77;6.40;;;25.90;66.20;;;;;;5069461;28;20067;-78
2023/06/01 09:52:16;;;;;;;13.30;6.10;;;25.80;67.50;;;;;;5069644;28;20025;-74
2023/06/01 09:54:49;;;;;;;12.82;5.80;;;25.80;66.90;;;;;;5071714;28;20119;-73
2023/06/01 09:57:26;;;;;;;15.70;5.90;;;25.70;66.20;;;;;;5065105;28;20057;-71
2023/06/01 09:59:57;;;;;;;11.80;5.65;;;26.00;67.10;;;;;;5050433;28;20126;-71
2023/06/01 10:02:24;;;;;;;11.50;6.05;;;26.10;67.10;;;;;;5066615;28;20128;-72
2023/06/01 10:04:59;;;;;;;12.82;6.18;;;26.20;63.70;;;;;;5070588;28;20031;-77
2023/06/01 10:07:30;;;;;;;11.18;6.40;;;26.00;64.80;;;;;;5051496;28;20044;-72
2023/06/01 10:10:02;;;;;;;11.30;6.00;;;26.00;65.30;;;;;;5060320;28;20043;-73
2023/06/01 10:12:28;;;;;;;12.13;5.65;;;26.10;64.50;;;;;;5069530;28;20489;-74
2023/06/01 10:14:57;;;;;;;10.23;5.50;;;26.30;62.00;;;;;;5070356;28;20021;-75
2023/06/01 10:17:23;;;;;;;12.20;6.07;;;26.00;64.70;;;;;;5058272;28;20119;-76
2023/06/01 10:19:49;;;;;;;11.43;6.47;;;26.10;65.10;;;;;;5056007;28;20596;-75
2023/06/01 10:22:15;;;;;;;9.70;5.13;;;26.10;63.60;;;;;;5065956;28;20047;-72
2023/06/01 10:24:42;;;;;;;14.90;5.10;;;26.30;61.50;;;;;;5058616;28;20024;-76
2023/06/01 10:27:23;;;;;;;9.68;5.85;;;26.60;61.90;;;;;;5066420;28;20408;-75
2023/06/01 10:29:53;;;;;;;15.90;5.85;;;26.90;58.80;;;;;;5065887;28;20433;-73
2023/06/01 10:32:37;;;;;;;12.35;5.45;;;27.10;57.50;;;;;;5069230;28;20027;-76
2023/06/01 10:35:07;;;;;;;14.48;5.80;;;27.10;57.00;;;;;;5049829;28;20029;-76
2023/06/01 10:37:34;;;;;;;9.10;5.20;;;27.10;55.70;;;;;;5050830;28;20036;-75
2023/06/01 10:40:27;;;;;;;9.70;4.40;;;27.10;54.90;;;;;;5067466;28;20092;-74
2023/06/01 10:42:52;;;;;;;8.70;5.28;;;27.10;53.60;;;;;;5069593;28;20039;-71
2023/06/01 10:45:39;;;;;;;10.07;5.68;;;27.10;58.10;;;;;;5069321;28;20036;-72
2023/06/01 10:48:12;;;;;;;11.05;5.00;;;27.40;55.30;;;;;;5067413;28;20844;-70
2023/06/01 10:50:40;;;;;;;10.70;6.03;;;27.20;54.90;;;;;;5068518;28;20107;-72
2023/06/01 10:53:29;;;;;;;14.25;5.65;;;27.00;56.20;;;;;;5069643;28;20044;-70
2023/06/01 10:56:21;;;;;;;14.38;6.15;;;27.10;57.90;;;;;;5064738;28;20045;-70
2023/06/01 10:59:08;;;;;;;10.48;5.43;;;27.50;57.20;;;;;;5067388;28;20032;-79
2023/06/01 11:01:44;;;;;;;8.48;5.70;;;27.80;58.10;;;;;;5061327;28;20060;-74
2023/06/01 11:04:10;;;;;;;10.52;5.43;;;28.10;56.90;;;;;;5062728;28;20041;-75
2023/06/01 11:06:42;;;;;;;15.73;5.88;;;28.10;54.20;;;;;;5054627;28;20642;-76
2023/06/01 11:09:15;;;;;;;17.65;5.47;;;28.10;55.50;;;;;;5069225;28;20023;-74
2023/06/01 11:11:55;;;;;;;11.10;5.65;;;28.10;55.80;;;;;;5068820;28;20040;-72
2023/06/01 11:14:31;;;;;;;8.23;5.60;;;28.00;55.30;;;;;;5070084;28;20031;-72
2023/06/01 11:17:30;;;;;;;11.18;5.88;;;28.00;56.40;;;;;;5061738;28;20043;-74
2023/06/01 11:20:01;;;;;;;12.48;6.30;;;28.10;55.50;;;;;;5067178;28;20039;-73
2023/06/01 11:22:35;;;;;;;9.10;5.63;;;27.70;57.20;;;;;;5067225;28;20024;-73
2023/06/01 11:25:06;;;;;;;14.07;5.88;;;27.60;56.40;;;;;;5066369;28;20036;-72
2023/06/01 11:27:36;;;;;;;12.18;5.63;;;27.60;56.70;;;;;;5069812;28;20032;-77
2023/06/01 11:30:04;;;;;;;13.48;5.90;;;27.70;56.70;;;;;;5068924;28;20040;-74
2023/06/01 11:32:39;;;;;;;9.60;5.78;;;27.80;55.80;;;;;;5070166;28;20033;-75
2023/06/01 11:35:18;;;;;;;10.35;6.07;;;27.60;58.30;;;;;;5063423;28;20401;-71
2023/06/01 11:37:47;;;;;;;9.60;5.80;;;27.60;56.00;;;;;;5061579;28;20036;-76
2023/06/01 11:40:14;;;;;;;13.07;5.95;;;28.00;57.50;;;;;;5067003;28;20032;-77
2023/06/01 11:42:39;;;;;;;9.52;5.70;;;28.20;55.60;;;;;;5065890;28;20056;-75
2023/06/01 11:45:06;;;;;;;10.05;5.57;;;28.20;55.40;;;;;;5066443;28;20063;-76
2023/06/01 11:47:31;;;;;;;13.52;6.03;;;28.20;56.60;;;;;;5063983;28;20361;-77
2023/06/01 11:49:57;;;;;;;12.85;5.90;;;28.60;58.40;;;;;;5062845;28;20087;-77
2023/06/01 11:52:23;;;;;;;10.75;6.15;;;28.40;55.50;;;;;;5049373;28;20064;-73
2023/06/01 11:54:51;;;;;;;14.00;5.63;;;27.90;56.00;;;;;;5054027;28;20408;-76
2023/06/01 11:57:18;;;;;;;9.63;5.82;;;27.90;57.10;;;;;;5065144;28;20044;-72
2023/06/01 11:59:46;;;;;;;8.77;5.50;;;28.30;57.50;;;;;;5069083;28;20105;-73
2023/06/01 12:02:21;;;;;;;9.32;5.47;;;28.60;56.50;;;;;;5066955;28;20105;-74
2023/06/01 12:05:08;;;;;;;9.15;6.00;;;28.70;55.80;;;;;;5060468;28;20163;-74
2023/06/01 12:07:54;;;;;;;8.82;5.63;;;28.40;53.80;;;;;;5062353;28;20016;-76
2023/06/01 12:10:20;;;;;;;10.63;5.63;;;28.30;54.40;;;;;;5060493;28;20028;-75
2023/06/01 12:12:47;;;;;;;12.82;5.45;;;28.50;54.50;;;;;;5060501;28;20063;-80
2023/06/01 12:15:18;;;;;;;10.85;5.40;;;28.60;54.20;;;;;;5049365;28;20222;-76
2023/06/01 12:17:49;;;;;;;9.18;5.90;;;28.50;56.00;;;;;;5049436;28;20481;-84
2023/06/01 12:20:33;;;;;;;9.95;6.20;;;28.40;56.40;;;;;;5067974;28;20037;-80
2023/06/01 12:23:00;;;;;;;10.05;5.88;;;28.30;55.30;;;;;;5068103;28;20025;-81
2023/06/01 12:25:26;;;;;;;11.35;5.63;;;28.30;54.20;;;;;;5067457;28;20025;-79
2023/06/01 12:28:07;;;;;;;9.48;5.65;;;28.60;55.50;;;;;;5064287;28;20035;-78
2023/06/01 12:30:33;;;;;;;10.18;5.38;;;28.60;54.10;;;;;;5066842;28;20071;-78
2023/06/01 12:32:59;;;;;;;9.63;5.50;;;28.80;53.20;;;;;;5067855;28;20116;-81
2023/06/01 12:35:25;;;;;;;9.07;5.88;;;28.80;56.00;;;;;;5067234;28;20020;-80
2023/06/01 12:38:04;;;;;;;12.57;5.53;;;28.20;52.20;;;;;;5065926;28;20043;-82
2023/06/01 12:40:30;;;;;;;8.05;5.25;;;28.00;56.50;;;;;;5055465;28;20037;-76
2023/06/01 12:42:55;;;;;;;8.48;5.65;;;28.00;55.40;;;;;;5048212;28;20921;-77
2023/06/01 12:45:21;;;;;;;8.70;5.35;;;28.20;54.80;;;;;;5066341;28;20054;-77
2023/06/01 12:47:47;;;;;;;9.65;5.55;;;28.10;52.00;;;;;;5067020;28;20086;-80
2023/06/01 12:50:13;;;;;;;8.73;5.28;;;28.20;53.70;;;;;;5057530;28;20615;-75